Time;durP1;ratioP1;P1;durP2;ratioP2;P2;SDS_P1;SDS_P2;PMS_P1;PMS_P2;Temp;Humidity;BMP_temperature;BMP_pressure;BME280_temperature;BME280_humidity;BME280_pressure;Samples;Min_cycle;Max_cycle;Signal;HPM_P1;HPM_P2
2022/11/12 00:01:04;;;;;;;21.42;13.63;;;;;;;6.88;100.00;102112.56;5044996;28;20285;-75
2022/11/12 00:03:31;;;;;;;51.50;16.60;;;;;;;6.90;100.00;102115.25;5042298;28;20288;-76
2022/11/12 00:05:57;;;;;;;87.85;20.05;;;;;;;6.87;100.00;102121.50;5039026;28;20535;-75
2022/11/12 00:08:24;;;;;;;50.25;16.70;;;;;;;6.91;100.00;102129.53;5049687;28;20194;-75
2022/11/12 00:10:50;;;;;;;23.45;14.05;;;;;;;6.88;100.00;102136.66;5047750;28;20208;-76
2022/11/12 00:13:17;;;;;;;37.70;16.70;;;;;;;6.87;100.00;102128.63;5038866;28;20210;-77
2022/11/12 00:15:46;;;;;;;117.47;19.63;;;;;;;6.81;100.00;102128.66;5041316;28;20197;-75
2022/11/12 00:18:12;;;;;;;68.38;17.85;;;;;;;6.76;100.00;102136.69;5045332;28;20640;-76
2022/11/12 00:20:39;;;;;;;78.97;18.77;;;;;;;6.68;100.00;102134.03;5049910;28;20201;-76
2022/11/12 00:23:05;;;;;;;22.33;14.27;;;;;;;6.68;100.00;102127.78;5036717;28;20568;-77
2022/11/12 00:25:32;;;;;;;37.85;14.82;;;;;;;6.66;100.00;102130.44;5035114;28;21572;-74
2022/11/12 00:28:03;;;;;;;77.65;15.95;;;;;;;6.63;100.00;102126.91;5041454;28;20196;-77
2022/11/12 00:30:30;;;;;;;58.15;16.67;;;;;;;6.67;100.00;102123.28;5042720;28;20287;-74
2022/11/12 00:33:01;;;;;;;30.73;15.13;;;;;;;6.74;100.00;102119.75;5035515;28;20226;-74
2022/11/12 00:35:27;;;;;;;27.38;14.88;;;;;;;6.83;100.00;102117.03;5037379;28;20239;-75
2022/11/12 00:37:55;;;;;;;45.00;14.57;;;;;;;6.82;100.00;102123.28;5033341;28;20563;-76
2022/11/12 00:40:22;;;;;;;89.50;18.17;;;;;;;6.83;100.00;102121.50;5042696;28;20192;-74
2022/11/12 00:42:51;;;;;;;41.97;13.75;;;;;;;6.80;100.00;102125.06;5039858;28;20208;-75
2022/11/12 00:45:17;;;;;;;32.97;12.13;;;;;;;6.80;100.00;102125.06;5035391;28;20255;-76
2022/11/12 00:47:44;;;;;;;45.20;13.40;;;;;;;6.83;100.00;102122.41;5034233;28;20670;-76
2022/11/12 00:50:15;;;;;;;35.05;12.85;;;;;;;6.75;100.00;102118.84;5043655;28;20204;-76
2022/11/12 00:52:42;;;;;;;23.00;14.05;;;;;;;6.78;100.00;102117.94;5035076;28;20582;-76
2022/11/12 00:55:09;;;;;;;32.65;13.18;;;;;;;6.79;100.00;102111.69;5048298;28;20231;-78
2022/11/12 00:57:35;;;;;;;34.58;13.85;;;;;;;6.83;100.00;102110.81;5030421;28;20202;-75
2022/11/12 01:00:03;;;;;;;85.15;17.35;;;;;;;6.74;100.00;102106.34;5036284;28;20232;-77
2022/11/12 01:02:29;;;;;;;57.25;14.77;;;;;;;6.78;100.00;102112.56;5043005;28;20212;-77
2022/11/12 01:04:56;;;;;;;50.92;16.30;;;;;;;6.71;100.00;102116.16;5040079;28;20231;-77
2022/11/12 01:07:24;;;;;;;50.03;15.20;;;;;;;6.76;100.00;102111.69;5041626;28;20311;-76
2022/11/12 01:09:50;;;;;;;57.63;14.18;;;;;;;6.76;100.00;102109.91;5047953;28;20206;-74
2022/11/12 01:12:17;;;;;;;125.03;19.95;;;;;;;6.79;100.00;102114.38;5054194;28;20233;-76
2022/11/12 01:14:43;;;;;;;39.65;15.40;;;;;;;6.69;100.00;102116.16;5054492;28;20276;-74
2022/11/12 01:17:10;;;;;;;44.95;18.42;;;;;;;6.70;100.00;102103.69;5062549;28;20223;-77
2022/11/12 01:19:36;;;;;;;80.85;14.02;;;;;;;6.64;100.00;102105.47;5053010;28;20285;-75
2022/11/12 01:22:03;;;;;;;127.45;50.33;;;;;;;6.64;100.00;102105.47;5048543;28;20282;-75
2022/11/12 01:24:31;;;;;;;42.47;14.90;;;;;;;6.71;100.00;102106.34;5039762;28;20259;-75
2022/11/12 01:26:57;;;;;;;57.58;14.85;;;;;;;6.65;100.00;102112.63;5044291;28;20213;-76
2022/11/12 01:29:24;;;;;;;19.55;11.68;;;;;;;6.68;100.00;102098.31;5048227;28;20239;-76
2022/11/12 01:31:50;;;;;;;43.72;14.00;;;;;;;6.73;100.00;102104.56;5035806;28;20201;-75
2022/11/12 01:34:17;;;;;;;27.88;14.10;;;;;;;6.77;100.00;102103.66;5038872;28;20236;-76
2022/11/12 01:36:43;;;;;;;35.22;14.25;;;;;;;6.80;100.00;102106.31;5049705;28;20205;-76
2022/11/12 01:39:10;;;;;;;32.88;12.40;;;;;;;6.74;100.00;102109.03;5033868;28;20294;-75
2022/11/12 01:41:40;;;;;;;32.17;12.63;;;;;;;6.68;100.00;102103.69;5042423;28;20490;-76
2022/11/12 01:44:09;;;;;;;38.60;12.05;;;;;;;6.66;100.00;102103.66;5031868;28;20228;-73
2022/11/12 01:46:40;;;;;;;39.33;12.43;;;;;;;6.64;100.00;102089.41;5033647;28;20227;-75
2022/11/12 01:49:12;;;;;;;35.78;12.90;;;;;;;6.58;100.00;102096.53;5034259;28;20208;-75
2022/11/12 01:51:42;;;;;;;33.88;12.95;;;;;;;6.44;100.00;102097.47;5037159;28;20196;-75
2022/11/12 01:54:13;;;;;;;33.47;12.90;;;;;;;6.51;100.00;102101.00;5035975;28;20221;-75
2022/11/12 01:56:41;;;;;;;54.20;14.85;;;;;;;6.47;100.00;102102.81;5038392;28;20192;-76
2022/11/12 01:59:14;;;;;;;43.17;11.98;;;;;;;6.48;100.00;102104.59;5032720;28;20327;-75
2022/11/12 02:01:41;;;;;;;29.23;12.55;;;;;;;6.36;100.00;102107.28;5034121;28;20203;-76
2022/11/12 02:04:07;;;;;;;55.40;14.57;;;;;;;6.43;100.00;102100.16;5038612;28;20226;-76
2022/11/12 02:06:36;;;;;;;51.35;13.18;;;;;;;6.27;100.00;102099.28;5035712;28;20217;-76
2022/11/12 02:09:02;;;;;;;53.58;15.70;;;;;;;6.20;100.00;102093.03;5039593;28;20264;-76
2022/11/12 02:11:29;;;;;;;46.25;14.40;;;;;;;6.27;100.00;102088.56;5031234;28;20647;-77
2022/11/12 02:14:00;;;;;;;50.58;14.30;;;;;;;6.19;100.00;102079.66;5033726;28;20738;-75
2022/11/12 02:16:31;;;;;;;32.53;14.00;;;;;;;6.28;100.00;102090.34;5041960;28;20643;-76
2022/11/12 02:18:57;;;;;;;58.25;14.98;;;;;;;6.43;100.00;102093.00;5032592;28;20625;-75
2022/11/12 02:21:26;;;;;;;24.85;12.70;;;;;;;6.33;100.00;102090.34;5036321;28;20267;-75
2022/11/12 02:24:00;;;;;;;37.20;13.07;;;;;;;6.30;100.00;102098.38;5040659;28;20316;-75
2022/11/12 02:26:31;;;;;;;28.48;12.52;;;;;;;6.23;100.00;102097.50;5043350;28;20717;-76
2022/11/12 02:28:58;;;;;;;37.15;15.10;;;;;;;6.31;100.00;102101.06;5044158;28;20212;-76
2022/11/12 02:31:24;;;;;;;32.20;13.10;;;;;;;6.33;100.00;102091.25;5047395;28;20208;-75
2022/11/12 02:33:51;;;;;;;35.22;13.18;;;;;;;6.36;100.00;102093.91;5038986;28;20318;-74
2022/11/12 02:36:17;;;;;;;45.53;13.95;;;;;;;6.36;100.00;102093.91;5053139;28;20204;-74
2022/11/12 02:38:45;;;;;;;19.88;11.07;;;;;;;6.40;100.00;102093.03;5045944;28;20205;-75
2022/11/12 02:41:12;;;;;;;26.08;12.07;;;;;;;6.47;100.00;102099.25;5037109;28;20202;-76
2022/11/12 02:43:39;;;;;;;39.10;13.88;;;;;;;6.41;100.00;102100.16;5035597;28;20224;-75
2022/11/12 02:46:06;;;;;;;46.22;13.10;;;;;;;6.39;100.00;102101.94;5042685;28;20285;-75
2022/11/12 02:48:32;;;;;;;25.85;12.32;;;;;;;6.41;100.00;102093.91;5037315;28;20198;-76
2022/11/12 02:50:59;;;;;;;43.85;15.00;;;;;;;6.36;100.00;102091.25;5039734;28;20243;-76
2022/11/12 02:53:25;;;;;;;19.92;12.15;;;;;;;6.42;100.00;102093.91;5039378;28;20220;-76
2022/11/12 02:55:53;;;;;;;25.23;12.35;;;;;;;6.47;100.00;102092.13;5044601;28;20651;-76
2022/11/12 02:58:21;;;;;;;25.25;12.07;;;;;;;6.53;100.00;102095.66;5038178;28;20211;-75
2022/11/12 03:00:48;;;;;;;19.98;11.68;;;;;;;6.49;100.00;102089.44;5036629;28;20205;-75
2022/11/12 03:03:15;;;;;;;101.63;18.63;;;;;;;6.52;100.00;102092.09;5036733;28;20721;-75
2022/11/12 03:05:41;;;;;;;63.78;14.98;;;;;;;6.64;100.00;102100.09;5048147;28;20313;-76
2022/11/12 03:08:09;;;;;;;22.25;11.13;;;;;;;6.48;100.00;102083.19;5037886;28;20209;-75
2022/11/12 03:10:37;;;;;;;23.02;12.57;;;;;;;6.52;100.00;102088.53;5040831;28;20247;-75
2022/11/12 03:13:05;;;;;;;27.48;11.55;;;;;;;6.54;100.00;102101.03;5045369;28;20196;-75
2022/11/12 03:15:32;;;;;;;37.97;11.63;;;;;;;6.47;100.00;102091.22;5034954;28;20658;-74
2022/11/12 03:17:59;;;;;;;28.38;11.00;;;;;;;6.47;100.00;102097.47;5037421;28;20213;-73
2022/11/12 03:20:26;;;;;;;27.02;11.35;;;;;;;6.45;100.00;102091.22;5047734;28;20651;-75
2022/11/12 03:22:57;;;;;;;20.50;10.40;;;;;;;6.42;100.00;102093.00;5035010;28;20283;-75
2022/11/12 03:25:24;;;;;;;27.85;10.32;;;;;;;6.40;100.00;102095.69;5036114;28;20229;-77
2022/11/12 03:27:57;;;;;;;23.20;10.43;;;;;;;6.46;100.00;102084.97;5041511;28;20200;-75
2022/11/12 03:30:26;;;;;;;22.13;10.25;;;;;;;6.36;100.00;102079.66;5051082;28;20225;-75
2022/11/12 03:32:53;;;;;;;25.02;10.02;;;;;;;6.38;100.00;102076.06;5032866;28;20201;-76
2022/11/12 03:35:20;;;;;;;14.10;8.90;;;;;;;6.42;100.00;102083.22;5061245;22;20634;-76
2022/11/12 03:37:46;;;;;;;20.58;9.27;;;;;;;6.40;100.00;102078.72;5051380;28;20213;-75
2022/11/12 03:40:13;;;;;;;29.42;10.18;;;;;;;6.38;100.00;102083.22;5056383;28;20200;-76
2022/11/12 03:42:44;;;;;;;28.17;9.82;;;;;;;6.39;100.00;102085.00;5051880;28;20198;-76
2022/11/12 03:45:11;;;;;;;13.68;9.20;;;;;;;6.42;100.00;102083.22;5052279;28;20227;-74
2022/11/12 03:47:42;;;;;;;17.45;8.80;;;;;;;6.47;100.00;102080.53;5037257;28;20208;-75
2022/11/12 03:50:09;;;;;;;41.95;12.48;;;;;;;6.37;100.00;102074.28;5036081;28;20579;-74
2022/11/12 03:52:36;;;;;;;22.23;9.73;;;;;;;6.38;100.00;102076.06;5027658;28;20207;-75
2022/11/12 03:55:03;;;;;;;28.23;9.57;;;;;;;6.39;100.00;102076.97;5042724;28;20226;-77
2022/11/12 03:57:30;;;;;;;22.25;9.82;;;;;;;6.43;100.00;102076.06;5033158;28;20288;-76
2022/11/12 03:59:56;;;;;;;18.67;9.18;;;;;;;6.47;100.00;102072.50;5034919;28;20284;-74
2022/11/12 04:02:25;;;;;;;14.07;8.00;;;;;;;6.50;100.00;102075.16;5035310;28;20706;-76
2022/11/12 04:10:21;;;;;;;14.57;8.30;;;;;;;6.38;100.00;102081.44;5036823;28;20216;-77
2022/11/12 04:15:32;;;;;;;18.70;8.00;;;;;;;6.37;100.00;102081.41;5036304;28;20217;-75
2022/11/12 04:23:37;;;;;;;21.33;9.10;;;;;;;6.40;100.00;102071.63;4987442;28;20198;-75
2022/11/12 04:31:28;;;;;;;15.43;9.90;;;;;;;6.36;100.00;102067.16;4999068;28;20206;-77
2022/11/12 04:33:54;;;;;;;17.23;9.50;;;;;;;6.34;100.00;102071.63;4988814;28;20291;-75
2022/11/12 04:36:22;;;;;;;20.95;11.15;;;;;;;6.41;100.00;102081.41;4993965;28;20221;-75
2022/11/12 04:38:48;;;;;;;18.95;9.65;;;;;;;6.43;100.00;102082.31;4987688;28;20218;-76
2022/11/12 04:46:55;;;;;;;28.38;11.00;;;;;;;6.37;100.00;102084.97;4937800;29;20745;-76
2022/11/12 04:49:21;;;;;;;30.52;11.48;;;;;;;6.43;100.00;102089.44;4934367;29;20205;-76
2022/11/12 04:52:04;;;;;;;38.83;12.85;;;;;;;6.39;100.00;102083.19;4934004;29;20214;-77
2022/11/12 04:54:31;;;;;;;29.48;11.55;;;;;;;6.44;100.00;102085.88;4933565;29;20228;-74
2022/11/12 04:56:57;;;;;;;28.65;11.07;;;;;;;6.48;100.00;102088.53;4932254;29;20197;-76
2022/11/12 04:59:24;;;;;;;27.20;11.50;;;;;;;6.48;100.00;102080.50;4961108;28;20213;-76
2022/11/12 05:01:50;;;;;;;18.65;10.60;;;;;;;6.55;100.00;102078.72;4977090;28;20691;-75
2022/11/12 05:04:17;;;;;;;16.35;10.07;;;;;;;6.60;100.00;102081.38;4981572;28;20222;-75
2022/11/12 05:06:53;;;;;;;18.67;10.73;;;;;;;6.59;100.00;102079.59;4977413;28;20236;-76
2022/11/12 05:09:24;;;;;;;29.05;11.70;;;;;;;6.55;100.00;102080.50;4978960;28;20191;-76
2022/11/12 05:11:51;;;;;;;19.10;10.50;;;;;;;6.60;100.00;102081.38;4979163;28;20270;-77
2022/11/12 05:14:18;;;;;;;20.73;12.23;;;;;;;6.65;100.00;102093.00;4978622;28;20225;-76
2022/11/12 05:16:44;;;;;;;15.32;10.38;;;;;;;6.68;100.00;102090.28;4978693;28;20289;-76
2022/11/12 05:19:11;;;;;;;20.63;13.10;;;;;;;6.77;100.00;102079.56;5024425;28;20606;-76
2022/11/12 05:24:23;;;;;;;23.65;14.98;;;;;;;6.69;100.00;102081.34;5020891;28;20596;-77
2022/11/12 05:26:50;;;;;;;21.50;15.00;;;;;;;6.66;100.00;102086.72;5025138;28;20600;-76
2022/11/12 05:29:16;;;;;;;19.40;12.57;;;;;;;6.64;100.00;102084.03;5023960;28;20296;-76
2022/11/12 05:31:43;;;;;;;20.58;13.00;;;;;;;6.72;100.00;102080.47;5028618;28;20211;-76
2022/11/12 05:34:10;;;;;;;23.25;12.82;;;;;;;6.77;100.00;102076.88;5039313;28;20219;-76
2022/11/12 05:36:37;;;;;;;23.67;13.90;;;;;;;6.75;100.00;102077.78;5027320;28;20196;-76
2022/11/12 05:39:04;;;;;;;20.50;13.20;;;;;;;6.86;100.00;102076.84;5033048;28;20296;-76
2022/11/12 05:41:32;;;;;;;23.17;13.10;;;;;;;6.83;100.00;102079.53;5037021;28;20200;-73
2022/11/12 05:43:58;;;;;;;20.65;12.93;;;;;;;6.84;100.00;102075.97;5031783;28;20207;-76
2022/11/12 05:46:25;;;;;;;24.45;14.10;;;;;;;6.81;100.00;102084.00;5058672;28;20235;-75
2022/11/12 05:48:51;;;;;;;25.17;13.60;;;;;;;6.82;100.00;102077.75;5042971;28;20239;-76
2022/11/12 05:51:18;;;;;;;23.58;14.68;;;;;;;6.89;100.00;102084.84;5047645;28;20275;-78
2022/11/12 05:53:45;;;;;;;22.23;14.23;;;;;;;6.84;100.00;102085.78;5046560;28;20239;-76
2022/11/12 05:56:12;;;;;;;25.13;15.50;;;;;;;6.84;100.00;102084.00;5046650;28;20632;-71
2022/11/12 05:58:40;;;;;;;35.33;15.98;;;;;;;6.88;100.00;102088.44;5027071;28;20200;-75
2022/11/12 06:01:06;;;;;;;21.58;14.68;;;;;;;6.83;100.00;102095.63;5023913;28;20208;-73
2022/11/12 06:03:33;;;;;;;22.83;13.00;;;;;;;6.82;100.00;102084.91;5022348;28;20463;-73
2022/11/12 06:06:00;;;;;;;21.70;14.05;;;;;;;6.80;100.00;102092.03;5028478;28;20228;-72
2022/11/12 06:08:27;;;;;;;19.38;13.13;;;;;;;6.85;100.00;102087.56;5024155;28;20212;-73
2022/11/12 06:10:54;;;;;;;23.88;14.80;;;;;;;6.76;100.00;102088.50;5030905;28;20196;-73
2022/11/12 06:13:23;;;;;;;21.15;13.15;;;;;;;6.75;100.00;102088.50;5028497;28;20237;-75
2022/11/12 06:15:51;;;;;;;22.13;13.93;;;;;;;6.80;100.00;102100.06;5028977;28;20224;-78
2022/11/12 06:18:18;;;;;;;35.53;13.45;;;;;;;6.75;100.00;102094.72;5027464;28;20207;-75
2022/11/12 06:21:18;;;;;;;21.13;12.50;;;;;;;6.81;100.00;102101.88;5034687;28;20222;-74
2022/11/12 06:23:31;;;;;;;19.55;12.93;;;;;;;6.78;100.00;102101.88;5037010;28;20208;-74
2022/11/12 06:25:57;;;;;;;20.75;13.30;;;;;;;6.65;100.00;102101.91;5032222;28;20231;-74
2022/11/12 06:28:24;;;;;;;25.02;12.27;;;;;;;6.68;100.00;102109.03;5027694;28;20226;-76
2022/11/12 06:30:52;;;;;;;17.02;12.15;;;;;;;6.60;100.00;102106.38;5044930;28;20288;-76
2022/11/12 06:33:19;;;;;;;29.33;13.95;;;;;;;6.62;100.00;102111.72;5041454;28;20231;-77
2022/11/12 06:35:45;;;;;;;19.17;11.52;;;;;;;6.63;100.00;102113.53;5040870;28;20234;-75
2022/11/12 06:38:12;;;;;;;19.35;12.60;;;;;;;6.74;100.00;102111.72;5043596;28;20273;-77
2022/11/12 06:40:39;;;;;;;20.13;12.18;;;;;;;6.72;100.00;102120.66;5038800;28;20561;-76
2022/11/12 06:43:05;;;;;;;20.35;14.25;;;;;;;6.72;100.00;102112.63;5028551;28;20210;-76
2022/11/12 06:45:32;;;;;;;26.73;17.05;;;;;;;6.74;100.00;102117.06;5044923;28;20227;-76
2022/11/12 06:48:00;;;;;;;34.72;23.25;;;;;;;6.73;100.00;102112.59;5043303;28;20218;-76
2022/11/12 06:50:26;;;;;;;23.00;15.95;;;;;;;6.66;100.00;102113.50;5035952;28;20284;-75
2022/11/12 06:52:58;;;;;;;19.73;12.90;;;;;;;6.71;100.00;102116.16;5043092;28;20204;-75
2022/11/12 06:55:25;;;;;;;24.77;15.50;;;;;;;6.75;100.00;102118.84;5044868;28;20225;-75
2022/11/12 06:57:52;;;;;;;17.90;12.60;;;;;;;6.75;100.00;102121.50;5035495;28;20202;-75
2022/11/12 07:00:19;;;;;;;18.20;13.25;;;;;;;6.72;100.00;102118.84;5037589;28;20210;-75
2022/11/12 07:02:46;;;;;;;16.88;12.65;;;;;;;6.67;100.00;102121.53;5047446;28;20224;-74
2022/11/12 07:05:14;;;;;;;18.17;12.70;;;;;;;6.74;100.00;102116.16;5039614;28;20240;-74
2022/11/12 07:07:41;;;;;;;20.35;12.60;;;;;;;6.76;100.00;102119.72;5038346;28;20679;-75
2022/11/12 07:10:09;;;;;;;18.38;12.38;;;;;;;6.71;100.00;102119.72;5038431;28;20566;-74
2022/11/12 07:12:35;;;;;;;19.25;13.15;;;;;;;6.70;100.00;102117.97;5027229;28;20626;-75
2022/11/12 07:15:02;;;;;;;18.20;12.82;;;;;;;6.72;100.00;102129.56;5059472;28;20259;-75
2022/11/12 07:17:30;;;;;;;19.02;12.50;;;;;;;6.72;100.00;102124.22;5046848;28;20563;-74
2022/11/12 07:19:57;;;;;;;21.08;13.90;;;;;;;6.76;100.00;102126.00;5039438;28;20241;-76
2022/11/12 07:22:24;;;;;;;19.17;13.10;;;;;;;6.89;100.00;102127.72;5034599;28;20236;-75
2022/11/12 07:24:51;;;;;;;17.67;13.77;;;;;;;6.91;100.00;102127.72;5047082;28;20291;-74
2022/11/12 07:27:18;;;;;;;33.50;19.90;;;;;;;6.93;100.00;102128.63;5050664;28;20234;-75
2022/11/12 07:29:44;;;;;;;25.65;16.50;;;;;;;6.97;100.00;102130.41;5042150;28;20232;-73
2022/11/12 07:32:11;;;;;;;21.40;13.48;;;;;;;7.00;100.00;102127.69;5052237;28;20202;-75
2022/11/12 07:34:37;;;;;;;20.40;14.05;;;;;;;7.05;100.00;102125.00;5045284;28;20259;-75
2022/11/12 07:37:04;;;;;;;21.00;13.93;;;;;;;7.13;100.00;102125.00;5057430;28;20197;-75
2022/11/12 07:39:32;;;;;;;22.88;14.73;;;;;;;7.13;100.00;102120.50;5033061;28;20262;-76
2022/11/12 07:41:58;;;;;;;20.23;13.48;;;;;;;7.16;100.00;102125.84;5048684;28;20198;-75
2022/11/12 07:44:25;;;;;;;21.77;14.90;;;;;;;7.14;100.00;102126.75;5044993;28;20233;-75
2022/11/12 07:46:51;;;;;;;25.80;16.17;;;;;;;7.20;100.00;102126.75;5040638;28;20226;-75
2022/11/12 07:49:18;;;;;;;25.50;16.95;;;;;;;7.24;100.00;102124.03;5032743;28;20208;-73
2022/11/12 07:51:45;;;;;;;22.05;15.40;;;;;;;7.31;100.00;102120.44;5041614;28;20288;-74
2022/11/12 07:54:12;;;;;;;23.38;17.20;;;;;;;7.41;100.00;102123.06;5038979;28;20226;-75
2022/11/12 07:56:40;;;;;;;27.15;17.67;;;;;;;7.39;100.00;102119.50;5044399;28;20194;-75
2022/11/12 07:59:07;;;;;;;23.60;16.45;;;;;;;7.36;100.00;102117.72;5038086;28;20211;-76
2022/11/12 08:01:36;;;;;;;22.70;16.23;;;;;;;7.38;100.00;102123.09;5029350;28;20222;-74
2022/11/12 08:04:04;;;;;;;23.08;16.55;;;;;;;7.41;100.00;102125.75;5046251;28;20336;-73
2022/11/12 08:06:32;;;;;;;29.50;17.17;;;;;;;7.41;100.00;102129.31;5043355;28;20248;-71
2022/11/12 08:09:01;;;;;;;72.32;48.60;;;;;;;7.60;100.00;102127.44;5039970;28;20203;-72
2022/11/12 08:11:27;;;;;;;30.35;20.58;;;;;;;7.80;100.00;102121.97;5044964;28;20202;-69
2022/11/12 08:13:55;;;;;;;25.30;16.90;;;;;;;7.69;100.00;102132.75;5045679;28;20193;-69
2022/11/12 08:16:22;;;;;;;25.75;17.10;;;;;;;7.89;100.00;102126.38;5053150;28;20204;-70
2022/11/12 08:18:49;;;;;;;26.83;18.73;;;;;;;7.82;100.00;102128.19;5034082;28;20202;-69
2022/11/12 08:21:17;;;;;;;24.98;18.90;;;;;;;7.92;100.00;102134.41;5029645;28;20285;-67
2022/11/12 08:23:44;;;;;;;29.70;19.40;;;;;;;8.01;100.00;102138.81;5037332;28;20268;-67
2022/11/12 08:26:13;;;;;;;26.98;19.23;;;;;;;7.97;100.00;102142.44;5018563;28;20205;-75
2022/11/12 08:28:39;;;;;;;24.90;18.17;;;;;;;7.97;100.00;102137.06;5035511;28;20257;-75
2022/11/12 08:31:09;;;;;;;23.35;17.20;;;;;;;7.84;100.00;102146.97;5044806;28;20194;-73
2022/11/12 08:33:36;;;;;;;22.73;16.58;;;;;;;7.93;100.00;102136.19;5054927;28;20229;-73
2022/11/12 08:36:03;;;;;;;51.40;34.63;;;;;;;7.90;100.00;102139.78;5048016;28;20252;-71
2022/11/12 08:38:30;;;;;;;61.78;42.05;;;;;;;7.90;100.00;102137.09;5049193;28;20725;-72
2022/11/12 08:41:00;;;;;;;27.13;17.55;;;;;;;7.83;100.00;102137.16;5043670;28;20257;-74
2022/11/12 08:43:26;;;;;;;24.38;15.95;;;;;;;7.67;100.00;102139.03;5062944;28;20279;-74
2022/11/12 08:45:53;;;;;;;24.50;16.73;;;;;;;7.69;100.00;102139.94;5062482;28;20232;-76
2022/11/12 08:48:21;;;;;;;26.05;16.00;;;;;;;7.60;100.00;102138.19;5043349;28;20292;-76
2022/11/12 08:50:48;;;;;;;22.60;16.20;;;;;;;7.64;100.00;102139.03;5043659;28;20237;-76
2022/11/12 08:53:15;;;;;;;25.33;17.38;;;;;;;7.64;100.00;102156.03;5030641;28;20205;-77
2022/11/12 08:55:42;;;;;;;26.10;16.63;;;;;;;7.60;100.00;102151.59;5024810;28;20229;-75
2022/11/12 08:58:09;;;;;;;23.90;15.90;;;;;;;7.62;100.00;102154.25;5025953;28;20218;-76
2022/11/12 09:00:39;;;;;;;25.30;18.65;;;;;;;7.51;100.00;102152.53;5035753;28;20264;-74
2022/11/12 09:03:08;;;;;;;22.73;16.75;;;;;;;7.61;100.00;102150.69;5048902;28;20659;-76
2022/11/12 09:05:36;;;;;;;23.67;16.75;;;;;;;7.49;100.00;102145.38;5023599;28;20219;-76
2022/11/12 09:08:05;;;;;;;23.40;17.27;;;;;;;7.52;100.00;102150.72;5041774;28;20221;-76
2022/11/12 09:10:32;;;;;;;27.25;18.17;;;;;;;7.55;100.00;102152.50;5049193;28;20198;-77
2022/11/12 09:12:59;;;;;;;22.70;17.23;;;;;;;7.60;100.00;102151.59;5047942;28;20288;-77
2022/11/12 09:15:26;;;;;;;18.90;14.80;;;;;;;7.53;100.00;102147.16;5055599;28;20285;-75
2022/11/12 09:17:55;;;;;;;21.50;15.85;;;;;;;7.70;100.00;102152.41;5041802;28;20213;-75
2022/11/12 09:20:21;;;;;;;24.70;15.50;;;;;;;7.74;100.00;102151.50;5049149;28;20210;-75
2022/11/12 09:22:49;;;;;;;24.08;15.40;;;;;;;7.70;100.00;102139.91;5058982;28;20207;-76
2022/11/12 09:25:16;;;;;;;20.10;14.90;;;;;;;7.79;100.00;102146.13;5038034;28;20229;-76
2022/11/12 09:27:42;;;;;;;21.85;16.02;;;;;;;7.80;100.00;102140.75;5039361;28;20222;-77
2022/11/12 09:30:10;;;;;;;22.98;17.05;;;;;;;7.85;100.00;102140.72;5054451;28;20552;-75
2022/11/12 09:32:36;;;;;;;24.20;16.80;;;;;;;7.83;100.00;102145.19;5045327;28;20194;-76
2022/11/12 09:35:04;;;;;;;24.27;18.92;;;;;;;7.85;100.00;102146.09;5038579;28;20657;-74
2022/11/12 09:37:30;;;;;;;23.08;17.65;;;;;;;7.82;100.00;102144.28;5033628;28;20211;-73
2022/11/12 09:39:58;;;;;;;23.65;18.83;;;;;;;7.86;100.00;102135.31;5046312;28;20236;-75
2022/11/12 09:42:25;;;;;;;23.88;16.88;;;;;;;7.88;100.00;102143.38;5042712;28;20204;-77
2022/11/12 09:44:57;;;;;;;25.35;18.30;;;;;;;7.98;100.00;102146.88;5039634;28;20695;-75
2022/11/12 09:47:29;;;;;;;24.48;17.27;;;;;;;7.98;100.00;102149.56;5045343;28;20230;-76
2022/11/12 09:50:05;;;;;;;22.58;17.42;;;;;;;8.06;100.00;102147.72;5045995;28;20615;-77
2022/11/12 09:52:33;;;;;;;24.83;18.88;;;;;;;7.94;100.00;102146.91;5023273;28;20193;-74
2022/11/12 09:55:10;;;;;;;29.80;20.55;;;;;;;8.01;100.00;102150.44;5031543;28;20738;-73
2022/11/12 09:57:37;;;;;;;23.25;17.40;;;;;;;8.00;100.00;102143.28;5027642;28;20581;-76
2022/11/12 10:00:10;;;;;;;21.20;15.32;;;;;;;8.06;100.00;102147.72;5032227;28;20289;-76
2022/11/12 10:02:42;;;;;;;21.60;14.93;;;;;;;8.09;100.00;102145.00;5033837;28;20668;-76
2022/11/12 10:05:22;;;;;;;20.60;15.40;;;;;;;7.99;100.00;102151.34;5007537;28;20313;-76
2022/11/12 10:08:02;;;;;;;21.23;16.40;;;;;;;7.92;100.00;102146.03;5030051;28;20247;-74
2022/11/12 10:10:39;;;;;;;23.95;15.55;;;;;;;7.93;100.00;102136.19;5039170;28;20663;-75
2022/11/12 10:13:20;;;;;;;22.25;16.50;;;;;;;8.05;100.00;102133.44;5021201;28;20743;-74
2022/11/12 10:19:05;;;;;;;24.38;17.67;;;;;;;8.17;100.00;102132.44;5023993;28;20219;-75
2022/11/12 10:21:36;;;;;;;38.65;25.08;;;;;;;8.29;100.00;102128.75;5041017;28;20205;-76
2022/11/12 10:24:07;;;;;;;28.48;21.58;;;;;;;8.28;100.00;102122.50;5037975;28;20192;-76
2022/11/12 10:26:38;;;;;;;21.23;15.63;;;;;;;8.38;100.00;102117.94;5027682;28;20190;-76
2022/11/12 10:29:15;;;;;;;20.90;15.02;;;;;;;8.41;100.00;102109.91;5037794;28;20228;-78
2022/11/12 10:31:43;;;;;;;21.17;15.30;;;;;;;8.51;100.00;102116.97;5045518;28;20193;-75
2022/11/12 10:34:16;;;;;;;21.70;15.50;;;;;;;8.63;100.00;102107.88;5040959;28;20213;-76
2022/11/12 10:36:47;;;;;;;18.33;15.15;;;;;;;8.66;100.00;102112.31;5069425;28;20186;-74
2022/11/12 10:39:35;;;;;;;22.83;17.20;;;;;;;8.64;100.00;102107.00;5051592;28;20682;-75
2022/11/12 10:42:08;;;;;;;22.00;16.52;;;;;;;8.79;100.00;102111.28;5038843;28;20210;-76
2022/11/12 10:44:36;;;;;;;18.88;15.25;;;;;;;8.90;100.00;102106.69;5038966;28;20309;-74
2022/11/12 10:47:31;;;;;;;22.10;17.67;;;;;;;8.84;100.00;102117.53;5034913;28;20289;-76
2022/11/12 10:50:06;;;;;;;20.13;15.70;;;;;;;8.80;100.00;102109.53;5017183;28;20266;-77
2022/11/12 10:52:32;;;;;;;18.75;16.20;;;;;;;8.80;100.00;102109.53;5040599;28;20205;-76
2022/11/12 10:55:16;;;;;;;20.80;16.40;;;;;;;8.74;100.00;102114.03;5051826;28;20718;-78
2022/11/12 10:57:44;;;;;;;21.70;16.95;;;;;;;8.96;100.00;102103.06;5056110;28;20662;-75
2022/11/12 11:00:19;;;;;;;25.17;17.67;;;;;;;8.90;100.00;102101.31;5040554;28;20270;-75
2022/11/12 11:02:49;;;;;;;23.63;18.48;;;;;;;8.90;100.00;102104.00;5046304;28;20215;-74
2022/11/12 11:05:34;;;;;;;28.05;20.48;;;;;;;9.14;100.00;102099.28;5046550;28;20222;-74
2022/11/12 11:08:01;;;;;;;28.38;21.33;;;;;;;9.13;100.00;102094.78;5042821;28;20599;-74
2022/11/12 11:10:30;;;;;;;27.73;21.38;;;;;;;9.27;100.00;102089.22;5055674;28;20254;-75
2022/11/12 11:13:27;;;;;;;28.30;20.73;;;;;;;9.26;100.00;102096.41;5042935;28;20206;-74
2022/11/12 11:16:01;;;;;;;27.85;20.05;;;;;;;9.11;100.00;102089.44;4957895;29;20315;-75
2022/11/12 11:18:28;;;;;;;29.13;21.00;;;;;;;9.08;100.00;102094.84;4971477;28;20268;-74
2022/11/12 11:21:06;;;;;;;26.65;20.98;;;;;;;9.17;100.00;102089.34;4962253;28;20200;-74
2022/11/12 11:23:41;;;;;;;30.02;19.95;;;;;;;9.18;100.00;102084.88;4986327;28;20191;-74
2022/11/12 11:26:22;;;;;;;24.63;19.58;;;;;;;9.19;100.00;102081.28;4996001;28;20231;-77
2022/11/12 11:28:57;;;;;;;28.77;20.63;;;;;;;9.11;100.00;102076.00;4994438;28;20448;-74
2022/11/12 11:31:40;;;;;;;37.65;26.15;;;;;;;9.13;100.00;102070.59;4982064;28;20264;-76
2022/11/12 11:34:21;;;;;;;32.00;25.83;;;;;;;9.26;100.00;102074.91;4970113;28;20315;-75
2022/11/12 11:36:57;;;;;;;31.95;24.00;;;;;;;9.21;100.00;102067.81;4977311;28;20199;-77
2022/11/12 11:39:35;;;;;;;34.00;23.58;;;;;;;9.32;100.00;102068.56;4974837;28;20196;-77
2022/11/12 11:42:13;;;;;;;28.95;21.42;;;;;;;9.25;100.00;102065.06;4980124;28;20199;-74
2022/11/12 11:44:50;;;;;;;31.20;22.13;;;;;;;9.14;100.00;102061.63;4982522;28;20230;-74
2022/11/12 11:47:28;;;;;;;29.45;21.77;;;;;;;9.13;100.00;102066.09;4977671;28;20690;-76